Time;durP1;ratioP1;P1;durP2;ratioP2;P2;SDS_P1;SDS_P2;PMS_P1;PMS_P2;Temp;Humidity;BMP_temperature;BMP_pressure;BME280_temperature;BME280_humidity;BME280_pressure;Samples;Min_cycle;Max_cycle;Signal;HPM_P1;HPM_P2
2022/05/26 00:00:14;;;;;;;3.22;1.50;;;20.40;92.50;;;;;;5052599;28;20052;-79
2022/05/26 00:02:42;;;;;;;3.95;1.60;;;20.40;92.60;;;;;;5037007;28;20048;-80
2022/05/26 00:05:09;;;;;;;4.07;2.05;;;20.30;92.60;;;;;;5037699;28;20062;-79
2022/05/26 00:07:37;;;;;;;5.22;1.48;;;20.40;92.60;;;;;;5054056;28;20033;-80
2022/05/26 00:10:05;;;;;;;3.10;1.58;;;20.40;92.60;;;;;;5050982;28;20041;-79
2022/05/26 00:12:33;;;;;;;2.55;1.30;;;20.40;92.60;;;;;;5020912;28;20483;-80
2022/05/26 00:15:00;;;;;;;3.42;1.67;;;20.50;92.50;;;;;;5037122;28;20036;-79
2022/05/26 00:17:28;;;;;;;4.97;1.92;;;20.40;92.50;;;;;;5052140;28;20083;-79
2022/05/26 00:19:56;;;;;;;5.18;1.70;;;20.40;92.60;;;;;;5060522;28;20076;-79
2022/05/26 00:22:24;;;;;;;2.47;1.52;;;20.30;92.70;;;;;;5035924;28;20048;-79
2022/05/26 00:24:52;;;;;;;6.45;1.70;;;20.30;93.00;;;;;;5075793;28;20052;-81
2022/05/26 00:27:19;;;;;;;4.65;1.80;;;20.20;92.80;;;;;;5037302;28;20403;-80
2022/05/26 00:29:47;;;;;;;2.88;2.15;;;20.30;93.00;;;;;;5031773;28;20052;-80
2022/05/26 00:32:15;;;;;;;5.15;1.75;;;20.30;93.10;;;;;;5019864;28;20506;-80
2022/05/26 00:34:42;;;;;;;3.10;1.90;;;20.20;93.10;;;;;;5036952;28;20040;-79
2022/05/26 00:37:10;;;;;;;2.30;1.10;;;20.20;93.20;;;;;;5053647;28;20560;-79
2022/05/26 00:39:39;;;;;;;6.18;1.90;;;20.10;93.40;;;;;;5066585;28;20042;-80
2022/05/26 00:42:08;;;;;;;3.30;1.50;;;20.10;93.50;;;;;;5040010;28;20143;-80
2022/05/26 00:44:36;;;;;;;4.78;2.10;;;20.10;93.60;;;;;;5055907;28;20048;-81
2022/05/26 00:47:03;;;;;;;4.75;1.98;;;20.10;93.70;;;;;;5041923;28;20048;-80
2022/05/26 00:49:56;;;;;;;4.47;2.03;;;20.00;93.80;;;;;;5067801;28;20070;-80
2022/05/26 00:52:30;;;;;;;5.25;1.58;;;20.00;93.90;;;;;;5036742;28;20044;-80
2022/05/26 00:55:07;;;;;;;2.67;1.73;;;20.10;94.00;;;;;;5052653;28;20128;-79
2022/05/26 00:57:41;;;;;;;7.65;1.77;;;20.00;94.10;;;;;;5020428;28;20051;-80
2022/05/26 01:00:17;;;;;;;5.47;1.80;;;20.00;94.10;;;;;;5053082;28;20552;-78
2022/05/26 01:02:47;;;;;;;;;;;20.00;94.10;;;;;;5052700;28;20047;-79
2022/05/26 01:05:21;;;;;;;3.92;1.38;;;20.00;94.20;;;;;;5035089;28;20370;-79
2022/05/26 01:07:48;;;;;;;6.68;1.90;;;20.00;94.20;;;;;;5036334;28;20536;-78
2022/05/26 01:10:16;;;;;;;3.53;1.75;;;20.00;94.10;;;;;;5052900;28;20044;-78
2022/05/26 01:12:44;;;;;;;7.30;1.65;;;20.00;94.10;;;;;;5037784;28;20048;-79
2022/05/26 01:15:17;;;;;;;3.47;1.75;;;20.00;94.10;;;;;;5052189;28;20040;-78
2022/05/26 01:18:14;;;;;;;2.65;1.65;;;20.00;93.90;;;;;;5039182;28;20501;-79
2022/05/26 01:21:07;;;;;;;;;;;20.00;93.80;;;;;;5036519;28;20052;-80
2022/05/26 01:24:06;;;;;;;1.73;1.10;;;20.00;93.80;;;;;;5057406;28;20431;-81
2022/05/26 01:27:01;;;;;;;2.50;1.58;;;20.10;93.70;;;;;;5055536;28;20044;-79
2022/05/26 01:30:08;;;;;;;2.85;1.45;;;20.10;93.60;;;;;;5068809;28;20068;-79
2022/05/26 01:33:00;;;;;;;2.53;1.30;;;20.10;93.60;;;;;;5035202;28;20080;-79
2022/05/26 01:36:00;;;;;;;3.08;1.40;;;20.10;93.60;;;;;;5065105;28;20075;-79
2022/05/26 01:38:33;;;;;;;4.50;1.60;;;20.10;93.70;;;;;;5079873;28;20378;-80
2022/05/26 01:41:12;;;;;;;7.80;2.15;;;20.10;93.70;;;;;;5059624;28;20621;-80
2022/05/26 01:44:15;;;;;;;3.15;1.45;;;20.10;93.80;;;;;;5076025;28;20054;-79
2022/05/26 01:46:45;;;;;;;3.25;1.50;;;20.10;93.90;;;;;;5076252;28;20074;-79
2022/05/26 01:49:32;;;;;;;3.20;1.75;;;20.00;94.00;;;;;;5059958;28;20055;-80
2022/05/26 01:52:00;;;;;;;6.05;2.20;;;20.10;94.00;;;;;;5059631;28;20047;-80
2022/05/26 01:54:38;;;;;;;3.00;1.45;;;20.00;94.00;;;;;;5059790;28;20074;-80
2022/05/26 01:57:45;;;;;;;3.03;1.40;;;20.10;94.00;;;;;;5075511;28;20051;-80
2022/05/26 02:00:17;;;;;;;6.40;1.60;;;20.00;94.10;;;;;;5008112;28;20135;-80
2022/05/26 02:03:07;;;;;;;4.85;1.75;;;19.90;94.30;;;;;;5082164;28;20048;-79
2022/05/26 02:05:44;;;;;;;9.25;1.73;;;19.90;94.40;;;;;;5055787;28;20572;-80
2022/05/26 02:08:23;;;;;;;9.95;2.22;;;19.90;94.50;;;;;;5035818;28;20155;-80
2022/05/26 02:11:06;;;;;;;2.92;1.73;;;19.90;94.60;;;;;;5035867;28;20094;-80
2022/05/26 02:13:49;;;;;;;2.75;2.13;;;19.90;94.80;;;;;;5036025;28;20044;-79
2022/05/26 02:16:17;;;;;;;4.13;1.52;;;19.90;94.90;;;;;;5035782;28;20129;-79
2022/05/26 02:19:07;;;;;;;4.45;1.67;;;19.90;95.10;;;;;;5036227;28;20139;-79
2022/05/26 02:21:49;;;;;;;3.90;2.10;;;19.90;95.20;;;;;;5052934;28;20056;-79
2022/05/26 02:24:27;;;;;;;5.40;1.90;;;19.80;95.40;;;;;;5035752;28;20044;-79
2022/05/26 02:26:55;;;;;;;3.15;2.17;;;19.90;95.50;;;;;;5052506;28;20056;-79
2022/05/26 02:32:12;;;;;;;2.70;1.45;;;19.80;95.70;;;;;;5035669;28;20084;-79
2022/05/26 02:34:42;;;;;;;6.70;1.90;;;19.80;95.80;;;;;;5035193;28;20041;-80
2022/05/26 02:37:11;;;;;;;2.70;1.60;;;19.80;95.90;;;;;;5069976;28;20105;-79
2022/05/26 02:39:38;;;;;;;3.38;1.92;;;19.60;96.30;;;;;;5052299;28;20041;-79
2022/05/26 02:42:08;;;;;;;7.18;2.42;;;19.60;96.60;;;;;;5035339;28;20044;-79
2022/05/26 02:44:37;;;;;;;3.50;1.88;;;19.50;96.70;;;;;;5019319;28;20094;-79
2022/05/26 02:47:20;;;;;;;4.25;1.67;;;19.40;96.90;;;;;;5056706;28;20893;-79
2022/05/26 02:50:06;;;;;;;3.05;2.05;;;19.40;97.10;;;;;;5056254;28;20768;-79
2022/05/26 02:52:42;;;;;;;4.13;1.90;;;19.40;97.20;;;;;;5025949;28;20101;-79
2022/05/26 02:55:29;;;;;;;3.20;1.50;;;19.40;97.30;;;;;;5076152;28;20044;-79
2022/05/26 02:58:23;;;;;;;5.40;2.58;;;19.40;97.30;;;;;;5059832;28;20044;-79
2022/05/26 03:01:28;;;;;;;3.20;1.67;;;19.40;97.40;;;;;;5057468;28;20774;-79
2022/05/26 03:04:07;;;;;;;3.60;1.63;;;19.50;97.40;;;;;;5039303;28;20052;-80
2022/05/26 03:06:54;;;;;;;2.10;1.45;;;19.50;97.30;;;;;;5039720;28;20044;-80
2022/05/26 03:09:22;;;;;;;3.10;1.65;;;19.60;97.50;;;;;;5039352;28;20048;-79
2022/05/26 03:11:53;;;;;;;4.32;2.10;;;19.60;97.30;;;;;;5039681;28;20145;-79
2022/05/26 03:14:22;;;;;;;4.53;2.17;;;19.60;97.50;;;;;;5055661;28;20162;-79
2022/05/26 03:16:49;;;;;;;2.67;1.75;;;19.50;97.50;;;;;;5039825;28;20033;-79
2022/05/26 03:19:18;;;;;;;4.00;1.55;;;19.60;97.50;;;;;;5055428;28;20448;-79
2022/05/26 03:21:46;;;;;;;3.08;2.05;;;19.40;97.50;;;;;;5039287;28;20433;-79
2022/05/26 03:24:14;;;;;;;4.35;2.33;;;19.30;97.60;;;;;;5038721;28;20082;-79
2022/05/26 03:26:42;;;;;;;4.18;1.98;;;19.30;97.70;;;;;;5039158;28;20446;-79
2022/05/26 03:29:09;;;;;;;3.53;1.90;;;19.20;97.80;;;;;;5039475;28;20052;-80
2022/05/26 03:31:37;;;;;;;4.25;1.65;;;19.20;97.90;;;;;;5038927;28;20402;-79
2022/05/26 03:42:22;;;;;;;3.53;2.40;;;19.20;98.20;;;;;;5055160;28;20107;-79
2022/05/26 03:44:50;;;;;;;6.28;1.60;;;19.10;98.40;;;;;;5055113;28;20689;-79
2022/05/26 03:47:18;;;;;;;6.75;2.78;;;19.10;98.50;;;;;;5055083;28;20040;-79
2022/05/26 03:49:45;;;;;;;6.45;1.92;;;19.10;98.50;;;;;;5039118;28;20072;-79
2022/05/26 03:52:13;;;;;;;5.30;2.97;;;19.10;98.50;;;;;;5054652;28;20072;-79
2022/05/26 03:54:41;;;;;;;54.47;31.80;;;19.30;98.40;;;;;;5021978;28;20447;-79
2022/05/26 03:57:08;;;;;;;87.07;49.35;;;19.40;98.30;;;;;;5054147;28;20079;-79
2022/05/26 03:59:40;;;;;;;28.05;18.52;;;19.50;98.00;;;;;;5038457;28;20106;-79
2022/05/26 04:02:08;;;;;;;13.50;9.43;;;19.60;97.80;;;;;;5037949;28;20131;-80
2022/05/26 04:04:36;;;;;;;9.77;5.47;;;19.80;97.80;;;;;;5038502;28;20049;-79
2022/05/26 04:07:04;;;;;;;5.70;2.97;;;19.80;97.50;;;;;;5021766;28;20514;-79
2022/05/26 04:09:31;;;;;;;6.93;3.00;;;19.90;97.40;;;;;;5055252;28;20049;-79
2022/05/26 04:11:59;;;;;;;5.75;2.00;;;19.80;97.30;;;;;;5021235;28;20449;-80
2022/05/26 04:14:26;;;;;;;3.47;1.98;;;19.90;97.40;;;;;;5021495;28;20459;-79
2022/05/26 04:16:54;;;;;;;2.88;1.75;;;19.90;97.50;;;;;;5037989;28;20070;-79
2022/05/26 04:19:21;;;;;;;4.22;2.70;;;19.90;97.50;;;;;;5021937;28;20041;-78
2022/05/26 04:24:35;;;;;;;19.03;10.70;;;20.00;97.60;;;;;;5054719;28;20051;-78
2022/05/26 04:27:03;;;;;;;6.15;3.40;;;19.90;97.70;;;;;;5054785;28;20487;-79
2022/05/26 04:29:31;;;;;;;3.47;2.25;;;20.00;97.90;;;;;;5021776;28;20044;-79
2022/05/26 04:31:58;;;;;;;4.45;2.03;;;20.00;98.10;;;;;;5036321;28;20502;-79
2022/05/26 04:34:27;;;;;;;5.22;2.05;;;20.00;98.10;;;;;;5053542;28;20064;-79
2022/05/26 04:36:54;;;;;;;4.88;1.95;;;20.10;98.20;;;;;;5037310;28;20049;-79
2022/05/26 04:39:22;;;;;;;6.97;3.35;;;20.20;98.40;;;;;;5037127;28;20075;-79
2022/05/26 04:41:49;;;;;;;9.52;3.30;;;20.30;98.40;;;;;;5036074;28;20114;-80
2022/05/26 04:44:19;;;;;;;5.93;3.35;;;20.40;98.40;;;;;;5021220;28;20061;-79
2022/05/26 04:46:47;;;;;;;5.60;3.10;;;20.50;98.50;;;;;;5036687;28;20510;-79
2022/05/26 04:49:14;;;;;;;6.82;2.90;;;20.60;98.60;;;;;;5053942;28;20041;-78
2022/05/26 04:51:42;;;;;;;6.93;2.88;;;20.70;98.40;;;;;;5037775;28;20040;-79
2022/05/26 04:54:10;;;;;;;8.43;2.53;;;20.90;98.50;;;;;;5037298;28;20486;-79
2022/05/26 04:56:38;;;;;;;5.03;2.60;;;21.10;98.30;;;;;;5036952;28;20053;-79
2022/05/26 04:59:06;;;;;;;9.45;2.72;;;21.20;98.20;;;;;;5021067;28;20055;-79
2022/05/26 05:01:34;;;;;;;6.07;2.75;;;21.30;98.30;;;;;;5021281;28;20052;-79
2022/05/26 05:04:02;;;;;;;7.00;2.50;;;21.40;98.20;;;;;;5053317;28;20118;-79
2022/05/26 05:06:30;;;;;;;4.32;2.22;;;21.40;98.20;;;;;;5053691;28;20521;-78
2022/05/26 05:08:58;;;;;;;4.63;1.95;;;21.50;98.10;;;;;;5053813;28;20063;-79
2022/05/26 05:11:26;;;;;;;6.07;2.00;;;21.60;98.10;;;;;;5020658;28;20084;-80
2022/05/26 05:13:53;;;;;;;3.28;1.52;;;21.70;97.80;;;;;;5053973;28;20037;-78
2022/05/26 05:16:34;;;;;;;3.55;2.05;;;21.80;97.80;;;;;;5053748;28;20036;-79
2022/05/26 05:19:03;;;;;;;7.20;3.58;;;21.90;97.70;;;;;;5037281;28;20051;-79
2022/05/26 05:21:41;;;;;;;7.57;2.00;;;22.00;97.70;;;;;;5036960;28;20036;-79
2022/05/26 05:24:14;;;;;;;5.55;2.20;;;22.10;97.60;;;;;;5036047;28;20060;-79
2022/05/26 05:26:45;;;;;;;3.13;1.60;;;22.20;97.30;;;;;;5037393;28;20070;-79
2022/05/26 05:29:15;;;;;;;3.95;1.92;;;22.30;96.10;;;;;;5053158;28;20033;-78
2022/05/26 05:31:48;;;;;;;5.03;2.25;;;22.50;96.60;;;;;;5036972;28;20052;-78
2022/05/26 05:34:24;;;;;;;5.63;2.03;;;22.60;96.60;;;;;;5036589;28;20114;-79
2022/05/26 05:36:52;;;;;;;3.05;1.90;;;22.60;96.30;;;;;;5036824;28;20494;-78
2022/05/26 05:39:19;;;;;;;2.75;1.70;;;22.80;96.50;;;;;;5037068;28;20144;-80
2022/05/26 05:41:47;;;;;;;2.95;1.35;;;22.80;95.80;;;;;;5021792;28;20154;-79
2022/05/26 05:44:14;;;;;;;5.40;2.72;;;23.00;95.90;;;;;;5036218;28;20040;-79
2022/05/26 05:46:54;;;;;;;4.22;1.88;;;23.20;95.30;;;;;;5036322;28;20140;-80
2022/05/26 05:49:27;;;;;;;3.28;2.17;;;23.30;94.70;;;;;;5037278;28;20059;-80
2022/05/26 05:52:02;;;;;;;6.30;2.05;;;23.30;94.20;;;;;;5020177;28;20502;-82
2022/05/26 05:54:31;;;;;;;3.53;2.05;;;23.40;94.30;;;;;;5070745;28;20047;-80
2022/05/26 05:56:59;;;;;;;6.38;2.78;;;23.40;94.50;;;;;;5036251;28;20134;-79
2022/05/26 05:59:27;;;;;;;4.68;2.35;;;23.70;94.10;;;;;;5052162;28;20048;-80
2022/05/26 06:01:55;;;;;;;4.38;2.20;;;23.90;93.80;;;;;;5051858;28;20568;-82
2022/05/26 06:04:29;;;;;;;3.50;2.00;;;24.10;93.30;;;;;;5054373;28;20564;-79
2022/05/26 06:06:58;;;;;;;4.88;2.30;;;24.20;92.10;;;;;;5036470;28;20106;-80
2022/05/26 06:09:25;;;;;;;3.92;2.15;;;24.40;91.50;;;;;;5020140;28;20044;-80
2022/05/26 06:11:53;;;;;;;3.00;1.92;;;24.50;90.20;;;;;;5052746;28;20447;-80
2022/05/26 06:14:21;;;;;;;3.15;1.65;;;24.70;89.50;;;;;;5019471;28;20044;-81
2022/05/26 06:16:48;;;;;;;8.93;1.95;;;24.90;90.00;;;;;;5052860;28;20079;-81
2022/05/26 06:19:16;;;;;;;6.40;1.70;;;24.90;87.70;;;;;;5052654;28;20506;-80
2022/05/26 06:21:43;;;;;;;4.90;2.00;;;24.90;87.60;;;;;;5036294;28;20498;-80
2022/05/26 06:24:11;;;;;;;4.97;1.90;;;25.10;86.90;;;;;;5035459;28;20143;-80
2022/05/26 06:26:38;;;;;;;4.25;2.10;;;25.10;86.10;;;;;;5035922;28;20510;-81
2022/05/26 06:37:29;;;;;;;7.15;2.03;;;25.50;85.30;;;;;;5071348;28;20056;-81
2022/05/26 06:39:57;;;;;;;7.10;2.55;;;25.60;85.30;;;;;;5072471;28;20521;-81
2022/05/26 06:42:25;;;;;;;3.10;1.85;;;25.70;84.90;;;;;;5039576;28;20052;-81
2022/05/26 06:45:01;;;;;;;3.70;1.70;;;25.90;84.20;;;;;;5055764;28;20520;-80
2022/05/26 06:47:29;;;;;;;5.47;2.08;;;25.80;83.60;;;;;;5072604;28;20056;-80
2022/05/26 06:49:59;;;;;;;3.80;1.80;;;25.70;83.00;;;;;;5055468;28;20048;-80
2022/05/26 06:52:29;;;;;;;3.45;2.20;;;25.80;82.70;;;;;;5055841;28;20044;-81
2022/05/26 06:54:58;;;;;;;7.50;2.00;;;25.80;83.10;;;;;;5072096;28;20044;-81
2022/05/26 06:57:26;;;;;;;3.88;1.90;;;26.00;82.50;;;;;;5038530;28;20130;-82
2022/05/26 06:59:55;;;;;;;5.00;1.77;;;26.30;82.20;;;;;;5039464;28;20052;-80
2022/05/26 07:02:22;;;;;;;7.53;2.85;;;26.30;81.20;;;;;;5038827;28;20444;-80
2022/05/26 07:04:50;;;;;;;6.40;2.53;;;26.30;80.80;;;;;;5055248;28;20145;-81
2022/05/26 07:07:21;;;;;;;4.82;1.90;;;26.50;80.70;;;;;;5039816;28;20460;-80
2022/05/26 07:09:54;;;;;;;9.90;2.17;;;26.80;79.20;;;;;;5055736;28;20044;-80
2022/05/26 07:12:23;;;;;;;6.15;2.08;;;26.90;77.80;;;;;;5056078;28;20056;-80
2022/05/26 07:14:51;;;;;;;6.45;1.95;;;27.00;74.90;;;;;;5054532;28;20177;-81
2022/05/26 07:17:19;;;;;;;3.45;1.70;;;27.20;75.80;;;;;;5055404;28;20047;-81
2022/05/26 07:19:47;;;;;;;12.18;2.47;;;27.40;75.60;;;;;;5072419;28;20048;-81
2022/05/26 07:22:15;;;;;;;7.45;2.63;;;27.50;74.00;;;;;;5039140;28;20055;-82
2022/05/26 07:24:45;;;;;;;5.07;1.92;;;27.20;74.30;;;;;;5054996;28;20113;-81
2022/05/26 07:27:13;;;;;;;4.07;1.95;;;27.30;73.70;;;;;;5055378;28;20056;-81
2022/05/26 07:29:40;;;;;;;5.75;1.80;;;27.20;72.40;;;;;;5054821;28;20040;-81
2022/05/26 07:32:08;;;;;;;5.68;2.58;;;27.30;73.20;;;;;;5037624;28;20121;-81
2022/05/26 07:34:35;;;;;;;5.38;1.90;;;27.50;72.90;;;;;;5055790;28;20494;-81
2022/05/26 07:42:36;;;;;;;3.05;1.50;;;27.70;72.40;;;;;;5073380;28;20048;-81
2022/05/26 07:45:08;;;;;;;6.22;1.98;;;27.90;71.40;;;;;;5022199;28;20075;-81
2022/05/26 07:47:37;;;;;;;5.90;1.83;;;27.90;70.10;;;;;;5055331;28;20053;-82
2022/05/26 07:50:07;;;;;;;6.30;2.30;;;28.00;70.60;;;;;;5038453;28;20072;-81
2022/05/26 07:52:35;;;;;;;6.13;2.00;;;28.00;70.50;;;;;;5038705;28;20045;-82
2022/05/26 07:55:03;;;;;;;8.27;2.13;;;27.90;69.40;;;;;;5072899;28;20453;-82
2022/05/26 07:57:31;;;;;;;9.40;2.22;;;27.90;69.90;;;;;;5073183;28;20056;-81
2022/05/26 07:59:59;;;;;;;10.50;1.88;;;27.90;69.90;;;;;;5055322;28;20044;-82
2022/05/26 08:02:26;;;;;;;6.90;2.10;;;28.00;70.70;;;;;;5038296;28;20566;-80
2022/05/26 08:04:55;;;;;;;6.38;2.15;;;28.30;70.00;;;;;;5055445;28;20792;-79
2022/05/26 08:07:22;;;;;;;5.50;1.98;;;28.50;69.80;;;;;;5038792;28;20502;-80
2022/05/26 08:09:50;;;;;;;6.85;2.00;;;28.50;69.30;;;;;;5038608;28;20487;-80
2022/05/26 08:12:18;;;;;;;8.82;2.30;;;28.60;68.90;;;;;;5054967;28;20053;-80
2022/05/26 08:14:45;;;;;;;7.80;2.40;;;28.60;68.20;;;;;;5038550;28;20056;-80
2022/05/26 08:17:14;;;;;;;3.65;1.70;;;28.70;68.70;;;;;;5038060;28;20372;-80
2022/05/26 08:19:42;;;;;;;3.55;1.58;;;28.80;70.00;;;;;;5021939;28;20514;-80
2022/05/26 08:22:10;;;;;;;4.78;2.08;;;28.80;69.40;;;;;;5037745;28;20125;-79
2022/05/26 08:24:37;;;;;;;9.75;2.47;;;29.00;70.10;;;;;;5054182;28;20064;-82
2022/05/26 08:27:05;;;;;;;5.25;2.03;;;29.00;69.00;;;;;;5072696;28;20417;-79
2022/05/26 08:29:34;;;;;;;5.78;1.88;;;29.00;68.90;;;;;;5054901;28;20583;-80
2022/05/26 08:32:01;;;;;;;7.60;2.35;;;29.00;68.50;;;;;;5024957;28;20117;-80
2022/05/26 08:34:29;;;;;;;4.65;1.83;;;29.10;69.20;;;;;;5041321;28;20046;-80
2022/05/26 08:36:56;;;;;;;3.97;1.63;;;29.20;70.20;;;;;;5058560;28;20060;-79
2022/05/26 08:39:24;;;;;;;4.35;1.95;;;29.00;69.40;;;;;;5074459;28;20401;-80
2022/05/26 08:41:53;;;;;;;2.95;1.63;;;29.20;70.30;;;;;;5058044;28;20115;-80
2022/05/26 08:44:35;;;;;;;5.15;2.40;;;29.20;69.80;;;;;;5073567;28;20048;-81
2022/05/26 08:47:11;;;;;;;7.55;2.65;;;29.20;70.70;;;;;;5057130;28;20044;-80
2022/05/26 08:50:09;;;;;;;5.70;1.88;;;29.30;70.10;;;;;;5074346;28;20048;-80
2022/05/26 08:52:58;;;;;;;8.93;2.33;;;29.00;68.70;;;;;;5041101;28;20448;-79
2022/05/26 08:55:34;;;;;;;6.78;2.25;;;28.90;70.30;;;;;;5040560;28;20044;-80
2022/05/26 08:58:07;;;;;;;;;;;29.00;70.30;;;;;;5057912;28;20055;-80
2022/05/26 09:00:39;;;;;;;4.95;1.70;;;29.20;70.40;;;;;;5056707;28;19930;-80
2022/05/26 09:03:27;;;;;;;7.07;2.30;;;29.30;70.00;;;;;;5074161;28;20040;-79
2022/05/26 09:06:01;;;;;;;4.68;2.03;;;29.30;69.30;;;;;;5073413;28;20048;-81
2022/05/26 09:14:03;;;;;;;6.85;2.13;;;29.60;68.40;;;;;;5057093;28;20054;-80
2022/05/26 09:16:38;;;;;;;4.40;2.30;;;29.70;68.50;;;;;;5056772;28;20520;-80
2022/05/26 09:19:19;;;;;;;5.70;2.38;;;29.80;68.90;;;;;;5073213;28;20494;-81
2022/05/26 09:21:49;;;;;;;7.60;1.77;;;29.90;69.30;;;;;;5072600;28;20047;-81
2022/05/26 09:24:29;;;;;;;4.60;2.53;;;30.00;69.40;;;;;;5035617;28;20044;-80
2022/05/26 09:26:57;;;;;;;4.40;2.42;;;30.10;68.70;;;;;;5020502;28;20151;-79
2022/05/26 09:29:30;;;;;;;3.17;1.80;;;30.10;68.60;;;;;;5052944;28;20060;-80
2022/05/26 09:32:00;;;;;;;3.33;2.33;;;29.90;69.20;;;;;;5035009;28;20201;-80
2022/05/26 09:35:11;;;;;;;10.13;2.40;;;30.00;69.50;;;;;;5052976;28;20040;-80
2022/05/26 09:37:48;;;;;;;7.97;1.88;;;30.20;70.10;;;;;;5036520;28;20052;-80
2022/05/26 09:40:29;;;;;;;14.38;2.30;;;30.20;70.00;;;;;;5036884;28;20071;-80
2022/05/26 09:43:05;;;;;;;5.10;2.03;;;30.10;69.70;;;;;;5020580;28;20068;-80
2022/05/26 09:45:46;;;;;;;6.43;2.25;;;30.10;70.00;;;;;;5052907;28;20109;-80
2022/05/26 09:48:24;;;;;;;8.35;2.63;;;30.10;69.40;;;;;;5036243;28;20051;-80
2022/05/26 09:51:12;;;;;;;5.93;2.00;;;30.20;69.80;;;;;;5052831;28;20505;-81
2022/05/26 09:53:42;;;;;;;4.32;2.20;;;30.10;69.90;;;;;;5036573;28;20056;-80
2022/05/26 09:56:37;;;;;;;4.45;3.17;;;30.10;69.70;;;;;;5052094;28;20547;-80
2022/05/26 09:59:28;;;;;;;5.45;2.15;;;30.10;70.50;;;;;;5070842;28;20399;-80
2022/05/26 10:02:34;;;;;;;5.15;1.90;;;30.10;70.60;;;;;;5070481;28;20500;-81
2022/05/26 10:05:44;;;;;;;5.75;2.53;;;30.10;70.30;;;;;;5035764;28;20417;-81
2022/05/26 10:08:20;;;;;;;7.90;2.72;;;30.10;70.20;;;;;;5027625;28;20132;-81
2022/05/26 10:10:59;;;;;;;5.03;2.10;;;30.10;70.50;;;;;;5048958;28;20481;-81
2022/05/26 10:14:05;;;;;;;4.72;2.33;;;30.20;69.80;;;;;;5036060;28;20186;-80
2022/05/26 10:16:35;;;;;;;5.05;2.17;;;30.40;70.20;;;;;;5035912;28;20510;-80
2022/05/26 10:19:20;;;;;;;5.10;2.50;;;30.20;69.90;;;;;;5060986;28;20079;-78
2022/05/26 10:22:11;;;;;;;4.90;1.70;;;29.90;68.90;;;;;;5039510;28;20129;-80
2022/05/26 10:24:44;;;;;;;7.15;1.92;;;29.90;69.10;;;;;;5055552;28;20120;-79
2022/05/26 10:27:34;;;;;;;5.30;2.22;;;30.00;70.40;;;;;;5055030;28;20048;-79
2022/05/26 10:30:19;;;;;;;4.53;2.25;;;30.00;70.20;;;;;;5038537;28;20130;-78
2022/05/26 10:33:18;;;;;;;3.70;2.22;;;30.10;70.30;;;;;;5039535;28;20063;-79
2022/05/26 10:36:17;;;;;;;3.95;2.28;;;29.90;70.70;;;;;;5048663;28;20438;-78
2022/05/26 10:39:07;;;;;;;2.72;1.65;;;29.90;70.70;;;;;;5032135;28;20052;-78
2022/05/26 10:41:37;;;;;;;4.15;2.13;;;30.20;70.30;;;;;;5048810;28;20518;-79
2022/05/26 10:44:10;;;;;;;3.58;2.17;;;29.90;70.90;;;;;;5048261;28;20055;-79
2022/05/26 10:46:44;;;;;;;6.47;2.22;;;30.00;71.30;;;;;;5049669;28;20052;-79
2022/05/26 10:49:30;;;;;;;6.28;2.03;;;30.10;70.10;;;;;;5048540;28;20057;-79
2022/05/26 10:52:05;;;;;;;3.90;1.98;;;30.10;68.00;;;;;;5048202;28;20052;-79
2022/05/26 10:55:05;;;;;;;7.15;2.30;;;30.20;69.30;;;;;;5031797;28;20051;-79
2022/05/26 10:57:44;;;;;;;4.57;2.10;;;30.20;70.50;;;;;;5031872;28;20380;-79
2022/05/26 11:00:18;;;;;;;6.10;2.58;;;30.20;71.40;;;;;;5047889;28;20045;-79
2022/05/26 11:02:57;;;;;;;4.50;2.65;;;30.10;71.10;;;;;;5031917;28;20075;-78
2022/05/26 11:05:36;;;;;;;5.75;2.10;;;30.20;71.20;;;;;;5049582;28;20048;-80
2022/05/26 11:08:28;;;;;;;3.35;2.00;;;30.30;70.90;;;;;;5035579;28;20506;-79
2022/05/26 11:11:23;;;;;;;5.15;2.45;;;30.20;70.50;;;;;;5053105;28;20048;-78
2022/05/26 11:13:51;;;;;;;7.28;2.15;;;30.10;70.50;;;;;;5052434;28;20170;-78
2022/05/26 11:17:23;;;;;;;6.25;2.45;;;30.20;71.20;;;;;;5051852;28;20049;-79
2022/05/26 11:19:35;;;;;;;6.95;2.53;;;30.10;72.40;;;;;;5040454;28;20052;-78
2022/05/26 11:22:04;;;;;;;6.03;2.63;;;30.20;72.40;;;;;;5052303;28;20067;-78
2022/05/26 11:24:33;;;;;;;11.20;2.03;;;30.40;72.50;;;;;;5035295;28;20045;-79
2022/05/26 11:27:04;;;;;;;5.78;2.38;;;30.30;73.20;;;;;;5051979;28;20147;-78
2022/05/26 11:29:37;;;;;;;6.22;1.95;;;30.10;73.10;;;;;;5035968;28;20087;-81
2022/05/26 11:38:13;;;;;;;8.25;3.13;;;30.20;72.90;;;;;;5053084;28;20041;-81
2022/05/26 11:40:53;;;;;;;6.93;3.25;;;30.30;72.90;;;;;;5019405;28;20419;-82
2022/05/26 11:43:29;;;;;;;7.93;3.60;;;30.40;72.30;;;;;;5052328;28;20388;-81
2022/05/26 11:45:58;;;;;;;8.63;3.60;;;30.50;73.40;;;;;;5034839;28;20091;-82
2022/05/26 11:48:32;;;;;;;6.18;4.00;;;30.50;73.60;;;;;;5018653;28;20063;-82
2022/05/26 11:51:39;;;;;;;7.05;3.67;;;30.60;73.80;;;;;;5051823;28;20499;-80
2022/05/26 11:54:30;;;;;;;7.72;3.72;;;30.60;73.90;;;;;;5047707;28;20060;-80
2022/05/26 11:56:57;;;;;;;9.25;4.57;;;30.70;74.10;;;;;;5007555;28;20053;-82
2022/05/26 11:59:34;;;;;;;8.55;5.45;;;30.70;74.10;;;;;;5035360;28;20555;-79
2022/05/26 12:02:07;;;;;;;12.32;6.03;;;30.70;74.60;;;;;;5041766;28;20042;-79
2022/05/26 12:04:41;;;;;;;9.25;7.10;;;30.60;74.50;;;;;;5018679;28;20056;-78
2022/05/26 12:07:17;;;;;;;10.45;5.80;;;30.60;74.60;;;;;;5042640;28;20047;-78
2022/05/26 12:09:52;;;;;;;9.73;6.07;;;30.60;74.70;;;;;;5047361;28;20067;-78
2022/05/26 12:12:23;;;;;;;8.85;4.30;;;30.50;74.50;;;;;;5043299;28;20566;-78
2022/05/26 12:14:52;;;;;;;8.20;4.18;;;30.60;74.70;;;;;;5017766;28;20053;-79
2022/05/26 12:17:48;;;;;;;10.57;3.38;;;30.50;74.60;;;;;;5005759;28;20053;-79
2022/05/26 12:20:16;;;;;;;8.75;4.18;;;30.50;74.50;;;;;;5042379;28;20045;-78
2022/05/26 12:22:47;;;;;;;5.90;3.20;;;30.50;74.40;;;;;;5014856;28;20385;-79
2022/05/26 12:25:24;;;;;;;6.03;2.75;;;30.50;74.40;;;;;;5033173;28;20148;-78
2022/05/26 12:27:52;;;;;;;8.27;4.43;;;30.50;75.00;;;;;;5019479;28;20100;-80
2022/05/26 12:30:40;;;;;;;6.13;3.92;;;30.50;75.50;;;;;;5020304;28;20048;-81
2022/05/26 12:33:17;;;;;;;9.27;3.15;;;30.70;75.40;;;;;;5014795;28;20518;-81
2022/05/26 12:36:07;;;;;;;6.95;3.03;;;30.70;75.20;;;;;;5013700;28;20138;-81
2022/05/26 12:38:49;;;;;;;4.97;2.58;;;30.80;75.60;;;;;;5032251;28;20079;-81
2022/05/26 12:41:25;;;;;;;6.40;3.63;;;30.90;76.70;;;;;;5033293;28;20045;-81
2022/05/26 12:43:59;;;;;;;4.25;2.85;;;31.00;76.90;;;;;;5031062;28;20057;-80
2022/05/26 12:46:33;;;;;;;5.85;2.25;;;30.70;77.10;;;;;;5019313;28;20037;-81
2022/05/26 12:49:47;;;;;;;6.32;2.47;;;30.40;77.80;;;;;;5027743;28;20045;-81
2022/05/26 12:52:18;;;;;;;6.40;2.45;;;30.10;78.10;;;;;;5014110;28;20146;-82
2022/05/26 12:55:18;;;;;;;4.38;2.38;;;30.00;78.30;;;;;;4998880;28;20060;-81
2022/05/26 12:58:01;;;;;;;5.03;2.88;;;30.00;78.70;;;;;;4997979;28;20055;-81
2022/05/26 13:00:39;;;;;;;6.70;3.28;;;30.20;78.40;;;;;;4997871;28;20499;-81
2022/05/26 13:03:13;;;;;;;9.38;3.03;;;30.30;78.50;;;;;;5030886;28;20104;-79
2022/05/26 13:05:47;;;;;;;7.20;2.63;;;30.20;78.20;;;;;;4997402;28;20046;-80
2022/05/26 13:08:22;;;;;;;7.57;2.75;;;30.20;78.00;;;;;;5046607;28;20049;-81
2022/05/26 13:10:55;;;;;;;9.77;2.72;;;30.10;78.20;;;;;;5030076;28;20537;-81
2022/05/26 13:13:25;;;;;;;5.50;2.85;;;30.10;78.50;;;;;;5013677;28;20504;-81
2022/05/26 13:15:52;;;;;;;5.38;2.72;;;30.10;78.50;;;;;;5030575;28;20182;-80
2022/05/26 13:18:24;;;;;;;6.03;2.42;;;30.10;78.30;;;;;;5029791;28;20140;-81
2022/05/26 13:20:53;;;;;;;5.95;2.63;;;30.00;78.00;;;;;;5030689;28;20064;-80
2022/05/26 13:23:31;;;;;;;6.72;2.35;;;29.90;78.40;;;;;;5030423;28;20045;-80
2022/05/26 13:25:59;;;;;;;;;;;30.00;78.30;;;;;;5031499;28;20140;-81
2022/05/26 13:28:33;;;;;;;6.82;2.83;;;30.10;77.50;;;;;;4997844;28;19925;-80
2022/05/26 13:34:13;;;;;;;8.05;3.75;;;30.10;78.40;;;;;;5067111;28;20044;-78
2022/05/26 13:36:46;;;;;;;7.32;4.25;;;30.20;78.10;;;;;;5055628;28;20044;-77
2022/05/26 13:39:21;;;;;;;7.00;3.55;;;30.10;78.20;;;;;;5091597;28;20044;-79
2022/05/26 13:41:55;;;;;;;8.98;4.10;;;30.10;78.00;;;;;;5036535;28;20060;-77
2022/05/26 13:44:37;;;;;;;7.13;4.18;;;30.20;77.50;;;;;;5056986;28;20051;-77
2022/05/26 13:47:08;;;;;;;7.10;4.15;;;30.00;77.50;;;;;;5073127;28;20044;-78
2022/05/26 13:49:43;;;;;;;6.90;3.17;;;30.10;77.60;;;;;;5056096;28;20052;-78
2022/05/26 13:52:25;;;;;;;5.60;3.25;;;30.10;77.60;;;;;;5056092;28;20043;-77
2022/05/26 13:55:05;;;;;;;7.18;3.10;;;29.90;77.40;;;;;;5040067;28;20051;-77
2022/05/26 13:57:40;;;;;;;6.03;3.28;;;29.90;77.60;;;;;;5056126;28;20406;-77
2022/05/26 14:00:14;;;;;;;4.45;2.22;;;30.00;77.50;;;;;;5072779;28;20057;-76
2022/05/26 14:03:05;;;;;;;7.55;3.72;;;29.90;78.20;;;;;;5056339;28;20515;-80
2022/05/26 14:05:36;;;;;;;6.30;3.40;;;29.90;78.20;;;;;;5050449;28;20075;-80
2022/05/26 14:08:09;;;;;;;7.25;3.90;;;29.90;77.80;;;;;;5056383;28;20059;-80